createdAt,value
2018-09-12T12:03:03.245Z,100023.11
2018-09-12T12:05:32.195Z,100021.02
2018-09-12T12:08:00.880Z,100028.88
2018-09-12T12:10:29.635Z,100024.78
2018-09-12T12:12:58.410Z,100022.12
2018-09-12T12:15:27.098Z,100021.44
2018-09-12T12:18:05.043Z,100016.67
2018-09-12T12:20:33.710Z,100014.58
2018-09-12T12:23:02.565Z,100022.77
2018-09-12T12:25:31.546Z,100017.66
2018-09-12T12:28:00.167Z,100018.95
2018-09-12T12:30:28.789Z,100013.16
2018-09-12T12:32:57.669Z,100008.56
2018-09-12T12:35:26.487Z,99999.05
2018-09-12T12:37:55.131Z,99996.53
2018-09-12T12:40:23.819Z,99991.61
2018-09-12T12:42:52.460Z,99982.18
2018-09-12T12:45:21.049Z,99985.73
2018-09-12T12:47:49.642Z,99986.90
2018-09-12T12:50:18.242Z,99973.75
2018-09-12T12:52:47.365Z,99973.23
2018-09-12T12:55:15.945Z,99967.07
2018-09-12T12:57:44.542Z,99966.80
2018-09-12T13:00:13.150Z,99958.27
2018-09-12T13:02:41.750Z,99948.53
2018-09-12T13:05:10.330Z,99944.67
2018-09-12T13:07:38.935Z,99939.42
2018-09-12T13:10:07.655Z,99936.89
2018-09-12T13:12:36.240Z,99938.91
2018-09-12T13:15:05.021Z,99933.28
2018-09-12T13:17:33.610Z,99934.13
2018-09-12T13:20:02.252Z,99931.66
2018-09-12T13:22:30.850Z,99929.50
2018-09-12T13:24:59.653Z,99925.66
2018-09-12T13:27:28.381Z,99925.66
2018-09-12T13:29:56.965Z,99930.95
2018-09-12T13:32:25.749Z,99928.64
2018-09-12T13:34:54.347Z,99924.52
2018-09-12T13:37:22.957Z,99919.33
2018-09-12T13:39:51.904Z,99919.34
2018-09-12T13:42:20.551Z,99907.36
2018-09-12T13:44:49.721Z,99909.83
2018-09-12T13:47:18.344Z,99911.21
2018-09-12T13:49:52.390Z,99909.30
2018-09-12T13:52:21.022Z,99912.23
2018-09-12T13:54:49.696Z,99915.27
2018-09-12T13:57:18.298Z,99910.59
2018-09-12T13:59:47.020Z,99897.69
2018-09-12T14:02:15.586Z,99892.06
2018-09-12T14:04:44.189Z,99895.80
2018-09-12T14:07:12.812Z,99889.81
2018-09-12T14:09:41.442Z,99884.37
2018-09-12T14:12:10.022Z,99883.25
2018-09-12T14:14:38.591Z,99882.05
2018-09-12T14:17:07.460Z,99874.66
2018-09-12T14:19:36.155Z,99866.50
2018-09-12T14:22:04.758Z,99875.08
2018-09-12T14:24:33.430Z,99867.34
2018-09-12T14:27:02.038Z,99863.86
2018-09-12T14:29:30.666Z,99863.44
2018-09-12T14:31:59.283Z,99859.72
2018-09-12T14:34:27.886Z,99851.86
2018-09-12T14:36:56.478Z,99854.43
2018-09-12T14:39:25.187Z,99857.58
2018-09-12T14:41:53.788Z,99854.17
2018-09-12T14:44:22.459Z,99850.98
2018-09-12T14:46:51.104Z,99853.17
2018-09-12T14:49:19.692Z,99841.09
2018-09-12T14:51:48.475Z,99843.08
2018-09-12T14:54:17.168Z,99838.73
2018-09-12T14:56:45.770Z,99839.34
2018-09-12T14:59:14.394Z,99832.43
2018-09-12T15:01:43.042Z,99826.97
2018-09-12T15:04:11.709Z,99825.63
2018-09-12T15:06:40.330Z,99828.56
2018-09-12T15:09:10.550Z,99827.86
2018-09-12T15:11:39.273Z,99834.82
2018-09-12T15:14:07.976Z,99824.14
2018-09-12T15:16:36.625Z,99816.10
2018-09-12T15:19:05.344Z,99817.61
2018-09-12T15:21:33.971Z,99814.01
2018-09-12T15:24:02.594Z,99808.03
2018-09-12T15:26:31.201Z,99808.00
2018-09-12T15:29:00.079Z,99806.41
2018-09-12T15:31:28.710Z,99798.44
2018-09-12T15:33:57.287Z,99796.83
2018-09-12T15:36:25.975Z,99796.77
2018-09-12T15:38:54.622Z,99796.39
2018-09-12T15:41:23.255Z,99786.78
2018-09-12T15:43:52.231Z,99791.83
2018-09-12T15:46:20.828Z,99780.66
2018-09-12T15:48:49.455Z,99774.02
2018-09-12T15:51:18.054Z,99773.50
2018-09-12T15:53:46.643Z,99769.64
2018-09-12T15:56:15.293Z,99769.84
2018-09-12T15:58:43.904Z,99770.89
2018-09-12T16:01:12.609Z,99768.61
2018-09-12T16:03:41.277Z,99759.56
2018-09-12T16:06:09.898Z,99763.55
2018-09-12T16:08:38.512Z,99760.42
2018-09-12T16:11:07.090Z,99758.97
2018-09-12T16:13:35.715Z,99763.54
2018-09-12T16:16:04.350Z,99758.55
2018-09-12T16:18:32.999Z,99755.59
2018-09-12T16:21:01.602Z,99750.45
2018-09-12T16:23:30.322Z,99748.20
2018-09-12T16:25:58.984Z,99743.34
2018-09-12T16:28:27.708Z,99744.00
2018-09-12T16:30:56.277Z,99742.33
2018-09-12T16:33:24.978Z,99749.87
2018-09-12T16:35:53.609Z,99737.41
2018-09-12T16:38:22.262Z,99743.59
2018-09-12T16:40:50.933Z,99749.30
2018-09-12T16:43:20.294Z,99746.84
2018-09-12T16:45:48.953Z,99747.95
2018-09-12T16:48:17.649Z,99745.71
2018-09-12T16:50:46.282Z,99743.17
2018-09-12T16:53:15.043Z,99742.84
2018-09-12T16:55:43.618Z,99743.84
2018-09-12T16:58:12.237Z,99748.63
2018-09-12T17:00:41.026Z,99748.45
2018-09-12T17:03:09.727Z,99751.52
2018-09-12T17:05:38.468Z,99754.03
2018-09-12T17:08:07.092Z,99755.92
2018-09-12T17:10:35.710Z,99754.27
2018-09-12T17:13:04.420Z,99748.67
2018-09-12T17:15:33.030Z,99746.30
2018-09-12T17:18:01.666Z,99742.58
2018-09-12T17:20:30.254Z,99742.41
2018-09-12T17:22:58.909Z,99747.02
2018-09-12T17:25:27.486Z,99743.22
2018-09-12T17:27:56.100Z,99744.84
2018-09-12T17:30:24.775Z,99741.08
2018-09-12T17:35:27.362Z,99747.45
2018-09-12T17:37:55.991Z,99747.80
2018-09-12T17:40:24.698Z,99747.82
2018-09-12T17:42:53.335Z,99746.41
2018-09-12T17:45:21.994Z,99742.77
2018-09-12T17:47:50.684Z,99755.17
2018-09-12T17:50:19.322Z,99756.93
2018-09-12T17:52:48.054Z,99759.53
2018-09-12T17:55:17.183Z,99757.59
2018-09-12T17:57:45.809Z,99766.83
2018-09-12T18:00:14.467Z,99769.84
2018-09-12T18:02:43.103Z,99768.64
2018-09-12T18:05:11.713Z,99766.68
2018-09-12T18:07:40.368Z,99763.03
2018-09-12T18:10:09.047Z,99778.82
2018-09-12T18:12:37.696Z,99771.83
2018-09-12T18:15:06.426Z,99772.32
2018-09-12T18:17:35.143Z,99775.88
2018-09-12T18:20:03.809Z,99768.79
2018-09-12T18:22:32.476Z,99773.52
2018-09-12T18:25:01.195Z,99770.39
2018-09-12T18:27:29.886Z,99763.89
2018-09-12T18:29:58.542Z,99762.53
2018-09-12T18:32:27.190Z,99760.80
2018-09-12T18:34:55.871Z,99766.48
2018-09-12T18:37:24.776Z,99755.39
2018-09-12T18:39:53.447Z,99762.25
2018-09-12T18:42:22.177Z,99762.02
2018-09-12T18:44:50.930Z,99762.63
2018-09-12T18:47:19.571Z,99758.11
2018-09-12T18:49:48.317Z,99756.24
2018-09-12T18:52:16.907Z,99758.39
2018-09-12T18:54:45.634Z,99768.48
2018-09-12T18:57:14.298Z,99765.26
2018-09-12T18:59:42.910Z,99764.61
2018-09-12T19:02:11.588Z,99771.13
2018-09-12T19:04:40.278Z,99761.84
2018-09-12T19:07:09.114Z,99768.69
2018-09-12T19:09:37.623Z,99762.44
2018-09-12T19:12:06.318Z,99758.74
2018-09-12T19:14:34.975Z,99767.70
2018-09-12T19:17:03.663Z,99773.69
2018-09-12T19:19:32.339Z,99782.83
2018-09-12T19:22:01.058Z,99781.45
2018-09-12T19:24:29.753Z,99777.84
2018-09-12T19:26:58.501Z,99777.91
2018-09-12T19:29:27.167Z,99778.30
2018-09-12T19:31:55.897Z,99766.73
2018-09-12T19:34:24.560Z,99762.63
2018-09-12T19:36:54.157Z,99761.52
2018-09-12T19:39:22.818Z,99767.42
2018-09-12T19:41:51.499Z,99766.68
2018-09-12T19:44:20.131Z,99766.37
2018-09-12T19:46:48.807Z,99759.02
2018-09-12T19:49:17.542Z,99761.81
2018-09-12T19:51:46.306Z,99754.94
2018-09-12T19:54:14.936Z,99748.95
2018-09-12T19:56:44.133Z,99750.66
2018-09-12T19:59:15.757Z,99745.53
2018-09-12T20:01:44.520Z,99752.88
2018-09-12T20:04:13.125Z,99750.81
2018-09-12T20:06:41.904Z,99752.13
2018-09-12T20:09:11.649Z,99745.61
2018-09-12T20:11:40.670Z,99740.19
2018-09-12T20:14:09.499Z,99731.83
2018-09-12T20:16:38.086Z,99737.31
2018-09-12T20:19:06.866Z,99741.44
2018-09-12T20:21:35.525Z,99745.81
2018-09-12T20:24:04.303Z,99747.19
2018-09-12T20:26:33.133Z,99738.42
2018-09-12T20:29:01.761Z,99743.07
2018-09-12T20:31:30.397Z,99751.23
2018-09-12T20:33:59.023Z,99752.53
2018-09-12T20:36:27.636Z,99757.70
2018-09-12T20:38:56.238Z,99755.44
2018-09-12T20:41:24.879Z,99749.09
2018-09-12T20:43:53.478Z,99754.18
2018-09-12T20:46:22.143Z,99751.66
2018-09-12T20:48:50.881Z,99755.45
2018-09-12T20:51:19.485Z,99757.31
2018-09-12T20:53:48.153Z,99757.09
2018-09-12T20:56:16.795Z,99760.09
2018-09-12T20:58:45.417Z,99755.28
2018-09-12T21:01:14.026Z,99762.52
2018-09-12T21:03:42.666Z,99762.00
2018-09-12T21:06:11.300Z,99763.17
2018-09-12T21:08:39.962Z,99758.76
2018-09-12T21:11:08.724Z,99762.77
2018-09-12T21:13:37.460Z,99762.43
2018-09-12T21:16:06.207Z,99757.75
2018-09-12T21:18:34.897Z,99758.88
2018-09-12T21:21:03.619Z,99758.47
2018-09-12T21:23:32.473Z,99754.77
2018-09-12T21:26:01.152Z,99758.94
2018-09-12T21:28:29.815Z,99757.23
2018-09-12T21:30:58.570Z,99757.05
2018-09-12T21:33:27.382Z,99756.42
2018-09-12T21:35:56.159Z,99753.41
2018-09-12T21:38:24.912Z,99746.70
2018-09-12T21:40:53.655Z,99744.16
2018-09-12T21:43:22.439Z,99745.92
2018-09-12T21:45:51.291Z,99734.94
2018-09-12T21:48:19.986Z,99732.20
2018-09-12T21:50:48.663Z,99728.61
2018-09-12T21:53:17.403Z,99728.63
2018-09-12T21:55:51.112Z,99728.48
2018-09-12T21:58:19.807Z,99738.52
2018-09-12T22:00:48.513Z,99737.67
2018-09-12T22:03:17.217Z,99738.12
2018-09-12T22:05:45.868Z,99731.03
2018-09-12T22:08:14.607Z,99721.86
2018-09-12T22:10:43.379Z,99725.38
2018-09-12T22:13:12.044Z,99724.62
2018-09-12T22:15:40.926Z,99716.77
2018-09-12T22:18:09.589Z,99717.92
2018-09-12T22:20:38.296Z,99729.30
2018-09-12T22:23:06.965Z,99721.03
2018-09-12T22:25:35.692Z,99713.09
2018-09-12T22:28:04.786Z,99700.16
2018-09-12T22:30:33.508Z,99699.31
2018-09-12T22:33:02.178Z,99698.61
2018-09-12T22:35:30.866Z,99692.56
2018-09-12T22:37:59.594Z,99690.29
2018-09-12T22:40:28.282Z,99691.48
2018-09-12T22:42:56.968Z,99699.55
2018-09-12T22:45:26.281Z,99704.68
2018-09-12T22:47:54.950Z,99705.35
2018-09-12T22:50:23.609Z,99706.59
2018-09-12T22:52:52.373Z,99713.53
2018-09-12T22:55:21.085Z,99709.72
2018-09-12T22:57:49.810Z,99714.66
2018-09-12T23:00:18.534Z,99714.97
2018-09-12T23:02:47.231Z,99713.61
2018-09-12T23:05:15.897Z,99715.36
2018-09-12T23:07:44.598Z,99713.95
2018-09-12T23:10:13.278Z,99717.63
2018-09-12T23:12:41.901Z,99715.67
2018-09-12T23:15:10.594Z,99720.19
2018-09-12T23:17:39.277Z,99719.12
2018-09-12T23:20:07.927Z,99718.22
2018-09-12T23:22:36.686Z,99717.54
2018-09-12T23:25:05.331Z,99712.44
2018-09-12T23:27:33.948Z,99714.38
2018-09-12T23:30:02.569Z,99702.03
2018-09-12T23:32:31.216Z,99702.38
2018-09-12T23:34:59.851Z,99707.98
2018-09-12T23:37:28.457Z,99704.37
2018-09-12T23:39:57.108Z,99710.27
2018-09-12T23:42:25.833Z,99705.63
2018-09-12T23:44:54.585Z,99704.55
2018-09-12T23:47:23.254Z,99706.45
2018-09-12T23:49:51.940Z,99708.25
2018-09-12T23:52:20.657Z,99708.58
2018-09-12T23:54:49.457Z,99703.17
2018-09-12T23:57:18.075Z,99701.30
2018-09-12T23:59:46.712Z,99699.24
